Time;durP1;ratioP1;P1;durP2;ratioP2;P2;SDS_P1;SDS_P2;PMS_P1;PMS_P2;Temp;Humidity;BMP_temperature;BMP_pressure;BME280_temperature;BME280_humidity;BME280_pressure;Samples;Min_cycle;Max_cycle;Signal;HPM_P1;HPM_P2
2021/07/18 00:01:13;;;;;;;10.53;7.23;;;;;;;;;;5097284;28;20467;-59
2021/07/18 00:03:42;;;;;;;12.07;2.97;;;;;;;;;;5110370;28;20489;-58
2021/07/18 00:06:13;;;;;;;11.57;3.00;;;;;;;;;;5103121;28;20467;-57
2021/07/18 00:08:42;;;;;;;7.90;3.67;;;;;;;;;;5115114;28;20488;-60
2021/07/18 00:11:14;;;;;;;6.60;3.23;;;;;;;;;;5103063;28;20490;-58
2021/07/18 00:13:42;;;;;;;9.60;4.47;;;;;;;;;;5107870;28;20475;-58
2021/07/18 00:16:09;;;;;;;9.50;3.43;;;;;;;;;;5113337;28;20455;-60
2021/07/18 00:18:36;;;;;;;15.73;4.50;;;;;;;;;;5111621;28;20447;-57
2021/07/18 00:21:05;;;;;;;6.60;2.93;;;;;;;;;;5113363;28;20553;-58
2021/07/18 00:23:43;;;;;;;12.00;4.40;;;;;;;;;;5107516;28;20494;-59
2021/07/18 00:26:10;;;;;;;8.53;3.03;;;;;;;;;;5095762;28;20479;-57
2021/07/18 00:28:37;;;;;;;6.70;2.73;;;;;;;;;;5096231;28;20483;-58
2021/07/18 00:31:05;;;;;;;4.37;2.60;;;;;;;;;;5100726;28;20471;-59
2021/07/18 00:33:35;;;;;;;4.90;2.97;;;;;;;;;;5135161;28;20510;-59
2021/07/18 00:36:03;;;;;;;6.10;2.77;;;;;;;;;;5120849;28;20507;-59
2021/07/18 00:38:44;;;;;;;4.93;2.93;;;;;;;;;;5128296;28;20438;-59
2021/07/18 00:41:11;;;;;;;5.57;3.17;;;;;;;;;;5102704;28;20460;-59
2021/07/18 00:43:38;;;;;;;9.37;3.30;;;;;;;;;;5098291;28;20447;-60
2021/07/18 00:46:07;;;;;;;8.90;3.20;;;;;;;;;;5097781;28;20467;-58
2021/07/18 00:48:39;;;;;;;5.60;3.07;;;;;;;;;;5114308;28;20505;-55
2021/07/18 00:51:06;;;;;;;5.87;2.77;;;;;;;;;;5138126;28;20461;-58
2021/07/18 00:53:44;;;;;;;4.70;2.97;;;;;;;;;;5139293;28;20942;-58
2021/07/18 00:56:13;;;;;;;7.50;2.97;;;;;;;;;;5138811;28;20454;-56
2021/07/18 00:58:44;;;;;;;6.77;3.03;;;;;;;;;;5137184;28;20443;-59
2021/07/18 01:01:12;;;;;;;6.43;3.63;;;;;;;;;;5117688;28;20839;-56
2021/07/18 01:03:39;;;;;;;7.27;3.13;;;;;;;;;;5118923;28;20481;-54
2021/07/18 01:06:06;;;;;;;7.83;4.13;;;;;;;;;;5117975;28;20461;-60
2021/07/18 01:08:36;;;;;;;8.50;3.60;;;;;;;;;;5118111;28;20490;-58
2021/07/18 01:11:04;;;;;;;7.53;4.00;;;;;;;;;;5135990;28;20545;-57
2021/07/18 01:13:33;;;;;;;5.80;3.67;;;;;;;;;;5139214;28;20487;-59
2021/07/18 01:16:00;;;;;;;11.63;3.93;;;;;;;;;;5139037;28;20435;-58
2021/07/18 01:18:27;;;;;;;6.53;4.77;;;;;;;;;;5137368;28;20474;-57
2021/07/18 01:20:55;;;;;;;7.33;4.20;;;;;;;;;;5138362;28;20456;-56
2021/07/18 01:23:25;;;;;;;4.60;3.13;;;;;;;;;;5138001;28;20484;-60
2021/07/18 01:26:02;;;;;;;7.33;3.07;;;;;;;;;;5137601;28;20465;-58
2021/07/18 01:28:33;;;;;;;7.30;3.33;;;;;;;;;;5138287;28;20481;-59
2021/07/18 01:31:01;;;;;;;6.80;3.70;;;;;;;;;;5118452;28;20455;-57
2021/07/18 01:33:38;;;;;;;4.80;3.50;;;;;;;;;;5116590;28;20709;-59
2021/07/18 01:36:05;;;;;;;6.47;3.87;;;;;;;;;;5117724;28;20451;-60
2021/07/18 01:38:34;;;;;;;8.63;4.07;;;;;;;;;;5117927;28;20452;-58
2021/07/18 01:41:13;;;;;;;8.83;4.50;;;;;;;;;;5117174;28;20432;-57
2021/07/18 01:43:40;;;;;;;14.57;5.23;;;;;;;;;;5116876;28;20463;-59
2021/07/18 01:46:09;;;;;;;6.50;3.93;;;;;;;;;;5116854;28;20447;-59
2021/07/18 01:48:38;;;;;;;5.63;3.80;;;;;;;;;;5115763;28;20617;-59
2021/07/18 01:51:05;;;;;;;9.53;4.07;;;;;;;;;;5116803;28;20465;-58
2021/07/18 01:53:33;;;;;;;8.33;4.00;;;;;;;;;;5116541;28;20761;-54
2021/07/18 01:56:01;;;;;;;11.27;4.47;;;;;;;;;;5135262;28;20431;-60
2021/07/18 01:58:29;;;;;;;6.80;3.60;;;;;;;;;;5136930;28;20513;-57
2021/07/18 02:00:57;;;;;;;5.57;3.97;;;;;;;;;;5137255;28;20458;-58
2021/07/18 02:03:46;;;;;;;5.60;4.27;;;;;;;;;;5137511;28;20445;-57
2021/07/18 02:06:13;;;;;;;5.07;3.77;;;;;;;;;;5137152;28;20450;-58
2021/07/18 02:08:42;;;;;;;9.83;4.90;;;;;;;;;;5137395;28;20496;-54
2021/07/18 02:11:41;;;;;;;6.90;4.20;;;;;;;;;;5137814;28;20470;-57
2021/07/18 02:14:08;;;;;;;5.30;3.60;;;;;;;;;;5137557;28;20458;-57
2021/07/18 02:16:35;;;;;;;10.00;5.00;;;;;;;;;;5137193;28;20588;-57
2021/07/18 02:19:16;;;;;;;10.50;5.20;;;;;;;;;;5137713;28;20451;-54
2021/07/18 02:21:44;;;;;;;12.73;4.77;;;;;;;;;;5134996;28;20458;-54
2021/07/18 02:24:12;;;;;;;6.73;4.50;;;;;;;;;;5116461;28;20457;-58
2021/07/18 02:27:05;;;;;;;5.23;4.40;;;;;;;;;;5116805;28;20448;-55
2021/07/18 02:29:34;;;;;;;7.63;4.80;;;;;;;;;;5108349;28;20490;-58
2021/07/18 02:32:02;;;;;;;6.77;4.70;;;;;;;;;;5116857;28;20506;-58
2021/07/18 02:37:33;;;;;;;7.73;4.73;;;;;;;;;;5121368;28;20489;-59
2021/07/18 02:40:02;;;;;;;7.10;5.43;;;;;;;;;;5108155;28;20487;-58
2021/07/18 02:42:30;;;;;;;9.70;5.53;;;;;;;;;;5116054;28;20482;-57
2021/07/18 02:44:57;;;;;;;10.33;4.80;;;;;;;;;;5116255;28;20460;-56
2021/07/18 02:47:25;;;;;;;6.17;4.37;;;;;;;;;;5116986;28;20474;-57
2021/07/18 02:49:59;;;;;;;10.17;5.47;;;;;;;;;;5117115;28;20457;-58
2021/07/18 02:52:30;;;;;;;8.40;4.40;;;;;;;;;;5116226;28;20465;-60
2021/07/18 02:54:58;;;;;;;8.73;4.43;;;;;;;;;;5115831;28;20531;-58
2021/07/18 02:58:03;;;;;;;11.23;4.00;;;;;;;;;;5116850;28;20451;-57
2021/07/18 03:00:32;;;;;;;7.50;4.90;;;;;;;;;;5120504;28;20528;-54
2021/07/18 03:03:00;;;;;;;7.80;4.57;;;;;;;;;;5136991;28;20457;-57
2021/07/18 03:05:29;;;;;;;11.10;6.27;;;;;;;;;;5137242;28;20466;-55
2021/07/18 03:07:57;;;;;;;10.80;5.50;;;;;;;;;;5136589;28;20490;-57
2021/07/18 03:10:24;;;;;;;10.70;5.03;;;;;;;;;;5136019;28;20466;-58
2021/07/18 03:13:03;;;;;;;10.40;5.43;;;;;;;;;;5136326;28;20519;-59
2021/07/18 03:15:30;;;;;;;7.80;5.17;;;;;;;;;;5136216;28;20446;-55
2021/07/18 03:17:59;;;;;;;8.43;5.50;;;;;;;;;;5136635;28;20457;-56
2021/07/18 03:20:28;;;;;;;7.20;5.00;;;;;;;;;;5136226;28;20423;-58
2021/07/18 03:22:56;;;;;;;6.17;4.70;;;;;;;;;;5136472;28;20455;-59
2021/07/18 03:25:23;;;;;;;8.03;4.33;;;;;;;;;;5136117;28;20461;-58
2021/07/18 03:27:50;;;;;;;10.43;4.93;;;;;;;;;;5136389;28;20540;-56
2021/07/18 03:30:19;;;;;;;7.90;4.97;;;;;;;;;;5128241;28;20470;-59
2021/07/18 03:33:05;;;;;;;9.87;5.37;;;;;;;;;;5115974;28;20495;-58
2021/07/18 03:35:34;;;;;;;8.63;4.47;;;;;;;;;;5115857;28;20473;-57
2021/07/18 03:38:01;;;;;;;9.30;5.57;;;;;;;;;;5115803;28;20455;-56
2021/07/18 03:40:29;;;;;;;9.23;4.50;;;;;;;;;;5118008;28;20467;-58
2021/07/18 03:42:57;;;;;;;12.03;6.10;;;;;;;;;;5135636;28;20443;-58
2021/07/18 03:45:26;;;;;;;11.00;6.57;;;;;;;;;;5128519;28;20443;-59
2021/07/18 03:48:08;;;;;;;8.43;4.77;;;;;;;;;;5120128;28;20543;-57
2021/07/18 03:50:39;;;;;;;12.90;6.30;;;;;;;;;;5135471;28;20454;-58
2021/07/18 03:53:07;;;;;;;11.27;5.20;;;;;;;;;;5136306;28;20442;-58
2021/07/18 03:55:36;;;;;;;11.67;5.00;;;;;;;;;;5135757;28;20458;-58
2021/07/18 03:58:03;;;;;;;18.03;4.97;;;;;;;;;;5139851;28;20450;-57
2021/07/18 04:00:31;;;;;;;8.00;4.47;;;;;;;;;;5139826;28;20729;-57
2021/07/18 04:03:33;;;;;;;8.43;5.67;;;;;;;;;;5140153;28;20430;-58
2021/07/18 04:06:01;;;;;;;8.10;5.40;;;;;;;;;;5139368;28;20464;-57
2021/07/18 04:08:28;;;;;;;5.23;4.40;;;;;;;;;;5140056;28;20502;-57
2021/07/18 04:11:05;;;;;;;7.83;5.43;;;;;;;;;;5139720;28;20468;-56
2021/07/18 04:13:32;;;;;;;19.93;5.47;;;;;;;;;;5139361;28;20473;-56
2021/07/18 04:16:00;;;;;;;8.57;5.47;;;;;;;;;;5139627;28;20454;-55
2021/07/18 04:18:27;;;;;;;11.87;6.53;;;;;;;;;;5139418;28;20549;-59
2021/07/18 04:20:54;;;;;;;7.67;5.63;;;;;;;;;;5139543;28;20500;-59
2021/07/18 04:23:58;;;;;;;13.53;8.90;;;;;;;;;;5139644;28;20454;-57
2021/07/18 04:26:27;;;;;;;14.63;5.27;;;;;;;;;;5119693;28;20430;-60
2021/07/18 04:28:56;;;;;;;9.20;4.80;;;;;;;;;;5129166;28;20542;-57
2021/07/18 04:31:26;;;;;;;8.40;5.80;;;;;;;;;;5139656;28;20458;-59
2021/07/18 04:33:58;;;;;;;6.83;4.73;;;;;;;;;;5120821;28;20486;-60
2021/07/18 04:36:25;;;;;;;9.20;5.07;;;;;;;;;;5118085;28;20491;-59
2021/07/18 04:39:08;;;;;;;11.03;5.07;;;;;;;;;;5119362;28;20641;-60
2021/07/18 04:41:37;;;;;;;9.23;5.33;;;;;;;;;;5130240;28;20488;-59
2021/07/18 04:44:05;;;;;;;9.17;5.10;;;;;;;;;;5138875;28;20492;-59
2021/07/18 04:46:32;;;;;;;6.20;5.10;;;;;;;;;;5138633;28;20453;-59
2021/07/18 04:49:00;;;;;;;7.47;5.27;;;;;;;;;;5138219;28;20524;-61
2021/07/18 04:51:29;;;;;;;10.67;4.80;;;;;;;;;;5138843;28;20473;-59
2021/07/18 04:53:56;;;;;;;6.63;4.73;;;;;;;;;;5138324;28;20454;-60
2021/07/18 04:56:23;;;;;;;7.50;4.70;;;;;;;;;;5138319;28;20450;-61
2021/07/18 04:58:52;;;;;;;9.17;6.57;;;;;;;;;;5138345;28;20435;-59
2021/07/18 05:01:19;;;;;;;13.60;5.20;;;;;;;;;;5137522;28;20438;-59
2021/07/18 05:03:55;;;;;;;7.00;5.20;;;;;;;;;;5149531;27;20471;-60
2021/07/18 05:06:23;;;;;;;11.57;5.87;;;;;;;;;;5140709;27;20434;-60
2021/07/18 05:08:50;;;;;;;7.10;4.30;;;;;;;;;;5137128;28;20490;-64
2021/07/18 05:11:19;;;;;;;9.13;5.70;;;;;;;;;;5137596;28;20450;-60
2021/07/18 05:13:46;;;;;;;9.27;5.17;;;;;;;;;;5137565;28;20545;-60
2021/07/18 05:16:15;;;;;;;10.00;5.27;;;;;;;;;;5137638;28;20473;-60
2021/07/18 05:18:42;;;;;;;9.37;5.63;;;;;;;;;;5137728;28;20430;-60
2021/07/18 05:21:23;;;;;;;6.80;5.97;;;;;;;;;;5137451;28;20464;-59
2021/07/18 05:23:51;;;;;;;7.57;5.30;;;;;;;;;;5137447;28;20465;-59
2021/07/18 05:26:18;;;;;;;9.73;6.07;;;;;;;;;;5123489;28;20478;-60
2021/07/18 05:28:46;;;;;;;7.47;5.57;;;;;;;;;;5116805;28;20490;-60
2021/07/18 05:31:15;;;;;;;8.97;5.40;;;;;;;;;;5132863;28;20462;-60
2021/07/18 05:34:00;;;;;;;9.90;6.40;;;;;;;;;;5137663;28;20441;-62
2021/07/18 05:36:28;;;;;;;12.70;6.97;;;;;;;;;;5137155;28;20450;-59
2021/07/18 05:38:55;;;;;;;10.17;6.70;;;;;;;;;;5137323;28;20460;-60
2021/07/18 05:41:52;;;;;;;11.23;7.20;;;;;;;;;;5123676;28;20479;-60
2021/07/18 05:44:20;;;;;;;10.67;8.10;;;;;;;;;;5124608;28;20462;-60
2021/07/18 05:46:50;;;;;;;14.07;8.33;;;;;;;;;;5136995;28;20449;-59
2021/07/18 05:49:18;;;;;;;14.10;9.60;;;;;;;;;;5135672;28;20558;-60
2021/07/18 05:51:45;;;;;;;15.20;10.73;;;;;;;;;;5137101;28;20442;-59
2021/07/18 05:54:29;;;;;;;15.87;10.93;;;;;;;;;;5137292;28;20454;-60
2021/07/18 05:56:57;;;;;;;15.07;9.00;;;;;;;;;;5137228;28;20450;-61
2021/07/18 05:59:25;;;;;;;13.27;10.40;;;;;;;;;;5119333;28;20461;-59
2021/07/18 06:01:56;;;;;;;14.63;10.97;;;;;;;;;;5136451;28;20466;-59
2021/07/18 06:04:25;;;;;;;15.13;9.40;;;;;;;;;;5136760;28;20462;-60
2021/07/18 06:06:52;;;;;;;14.27;8.23;;;;;;;;;;5136955;28;20426;-60
2021/07/18 06:09:23;;;;;;;11.90;8.67;;;;;;;;;;5136093;28;20477;-59
2021/07/18 06:11:50;;;;;;;15.63;8.37;;;;;;;;;;5136535;28;20462;-61
2021/07/18 06:14:20;;;;;;;11.50;7.50;;;;;;;;;;5123931;28;20471;-61
2021/07/18 06:16:47;;;;;;;11.37;8.87;;;;;;;;;;5114575;28;20452;-60
2021/07/18 06:19:16;;;;;;;12.17;8.30;;;;;;;;;;5117280;28;20444;-61
2021/07/18 06:22:02;;;;;;;10.07;6.83;;;;;;;;;;5131907;28;20455;-60
2021/07/18 06:24:29;;;;;;;12.40;9.00;;;;;;;;;;5114918;28;20436;-61
2021/07/18 06:26:58;;;;;;;8.53;7.10;;;;;;;;;;5130004;28;20873;-61
2021/07/18 06:29:28;;;;;;;12.33;8.20;;;;;;;;;;5123325;28;20493;-60
2021/07/18 06:31:56;;;;;;;12.20;7.80;;;;;;;;;;5134826;28;20451;-61
2021/07/18 06:34:24;;;;;;;12.67;8.53;;;;;;;;;;5133911;28;20460;-61
2021/07/18 06:36:54;;;;;;;9.90;7.10;;;;;;;;;;5129741;28;20441;-61
2021/07/18 06:39:21;;;;;;;12.20;8.40;;;;;;;;;;5117059;28;20489;-62
2021/07/18 06:41:55;;;;;;;13.30;6.63;;;;;;;;;;5116799;28;20467;-61
2021/07/18 06:44:29;;;;;;;8.97;7.87;;;;;;;;;;5133943;28;20460;-68
2021/07/18 06:46:57;;;;;;;12.20;6.90;;;;;;;;;;5118094;28;20502;-61
2021/07/18 06:49:27;;;;;;;10.87;7.47;;;;;;;;;;5125952;28;20486;-61
2021/07/18 06:51:57;;;;;;;14.87;6.30;;;;;;;;;;5135517;28;20459;-62
2021/07/18 06:54:25;;;;;;;9.70;6.30;;;;;;;;;;5135067;28;20442;-61
2021/07/18 06:56:53;;;;;;;10.63;6.63;;;;;;;;;;5135012;28;20458;-62
2021/07/18 06:59:31;;;;;;;10.40;7.17;;;;;;;;;;5125614;28;20453;-64
2021/07/18 07:02:05;;;;;;;8.83;5.73;;;;;;;;;;5114465;27;20474;-62
2021/07/18 07:04:36;;;;;;;8.03;5.50;;;;;;;;;;5096156;28;20499;-59
2021/07/18 07:07:05;;;;;;;7.37;5.23;;;;;;;;;;5093261;28;20455;-61
2021/07/18 07:09:33;;;;;;;14.80;7.80;;;;;;;;;;5093946;28;20494;-61
2021/07/18 07:12:08;;;;;;;12.03;7.17;;;;;;;;;;5096940;28;20450;-60
2021/07/18 07:14:36;;;;;;;9.03;6.60;;;;;;;;;;5108608;28;20457;-60
2021/07/18 07:17:04;;;;;;;9.37;6.33;;;;;;;;;;5096947;28;20458;-60
2021/07/18 07:19:35;;;;;;;10.20;7.00;;;;;;;;;;5111775;28;20495;-60
2021/07/18 07:22:03;;;;;;;9.87;6.30;;;;;;;;;;5093970;28;20525;-60
2021/07/18 07:24:31;;;;;;;11.73;6.60;;;;;;;;;;5114188;28;20519;-61
2021/07/18 07:27:22;;;;;;;13.43;5.17;;;;;;;;;;5100411;28;20451;-61
2021/07/18 07:29:50;;;;;;;11.03;4.93;;;;;;;;;;5107631;28;20479;-59
2021/07/18 07:32:17;;;;;;;9.00;5.60;;;;;;;;;;5107611;28;20532;-60
2021/07/18 07:34:54;;;;;;;7.37;5.43;;;;;;;;;;5113129;28;20463;-60
2021/07/18 07:37:24;;;;;;;7.20;5.90;;;;;;;;;;5103966;28;20500;-61
2021/07/18 07:40:00;;;;;;;11.67;5.77;;;;;;;;;;5089746;28;20472;-61
2021/07/18 07:42:37;;;;;;;6.60;5.20;;;;;;;;;;5094825;28;20465;-61
2021/07/18 07:45:06;;;;;;;6.83;4.60;;;;;;;;;;5093345;28;20453;-60
2021/07/18 07:47:35;;;;;;;8.83;4.83;;;;;;;;;;5103813;28;20467;-60
2021/07/18 07:50:05;;;;;;;8.90;4.53;;;;;;;;;;5104280;28;20488;-62
2021/07/18 07:52:38;;;;;;;8.23;4.30;;;;;;;;;;5113629;28;20462;-62
2021/07/18 07:55:05;;;;;;;8.03;4.60;;;;;;;;;;5113060;28;20496;-62
2021/07/18 07:57:33;;;;;;;8.27;5.40;;;;;;;;;;5105817;28;20451;-62
2021/07/18 08:00:04;;;;;;;6.90;4.07;;;;;;;;;;5093014;28;20493;-60
2021/07/18 08:02:45;;;;;;;7.37;4.20;;;;;;;;;;5092563;28;20495;-60
2021/07/18 08:05:18;;;;;;;7.17;4.60;;;;;;;;;;5116036;28;20459;-60
2021/07/18 08:07:46;;;;;;;6.67;3.73;;;;;;;;;;5111322;28;20512;-61
2021/07/18 08:10:16;;;;;;;9.13;4.27;;;;;;;;;;5100107;28;20481;-60
2021/07/18 08:12:51;;;;;;;8.10;4.63;;;;;;;;;;5104285;28;20442;-61
2021/07/18 08:15:38;;;;;;;5.20;3.70;;;;;;;;;;5112158;28;20466;-61
2021/07/18 08:18:05;;;;;;;5.40;3.23;;;;;;;;;;5110199;28;20699;-62
2021/07/18 08:20:37;;;;;;;4.80;3.43;;;;;;;;;;5099834;28;20462;-61
2021/07/18 08:23:07;;;;;;;6.37;3.60;;;;;;;;;;5112165;28;20477;-62
2021/07/18 08:25:36;;;;;;;5.37;3.30;;;;;;;;;;5110978;28;20454;-62
2021/07/18 08:28:03;;;;;;;9.40;4.03;;;;;;;;;;5099218;28;20447;-61
2021/07/18 08:30:37;;;;;;;4.73;3.73;;;;;;;;;;5093775;28;20870;-61
2021/07/18 08:33:07;;;;;;;10.20;3.77;;;;;;;;;;5091995;28;20447;-61
2021/07/18 08:35:39;;;;;;;9.30;6.00;;;;;;;;;;5090531;28;20467;-61
2021/07/18 08:38:07;;;;;;;7.57;5.60;;;;;;;;;;5089264;28;20505;-61
2021/07/18 08:40:36;;;;;;;5.47;3.30;;;;;;;;;;5089468;28;20679;-62
2021/07/18 08:43:21;;;;;;;8.00;5.20;;;;;;;;;;5093274;28;20479;-61
2021/07/18 08:45:49;;;;;;;6.47;3.20;;;;;;;;;;5113219;28;20736;-60
2021/07/18 08:48:17;;;;;;;12.20;4.37;;;;;;;;;;5115890;28;20451;-62
2021/07/18 08:50:51;;;;;;;6.40;3.30;;;;;;;;;;5110418;28;20491;-61
2021/07/18 08:53:19;;;;;;;5.53;2.90;;;;;;;;;;5106392;28;20465;-65
2021/07/18 08:55:47;;;;;;;7.27;3.20;;;;;;;;;;5114532;28;20457;-61
2021/07/18 08:58:28;;;;;;;6.70;3.27;;;;;;;;;;5115937;28;20724;-61
2021/07/18 09:00:56;;;;;;;6.70;4.63;;;;;;;;;;5112558;28;20561;-61
2021/07/18 09:03:23;;;;;;;12.60;4.07;;;;;;;;;;5110842;28;20451;-59
2021/07/18 09:06:12;;;;;;;6.87;3.70;;;;;;;;;;5102059;28;20435;-58
2021/07/18 09:08:45;;;;;;;6.17;3.70;;;;;;;;;;5110806;28;20490;-59
2021/07/18 09:11:17;;;;;;;5.73;2.77;;;;;;;;;;5100441;28;20470;-61
2021/07/18 09:14:04;;;;;;;4.77;3.37;;;;;;;;;;5101179;28;20496;-61
2021/07/18 09:16:32;;;;;;;7.57;3.80;;;;;;;;;;5111492;28;20466;-61
2021/07/18 09:19:30;;;;;;;8.43;3.80;;;;;;;;;;5107458;28;20449;-61
2021/07/18 09:22:12;;;;;;;7.03;3.77;;;;;;;;;;5127505;28;20459;-61
2021/07/18 09:24:41;;;;;;;7.60;3.83;;;;;;;;;;5123513;28;20465;-62
2021/07/18 09:27:14;;;;;;;7.23;3.50;;;;;;;;;;5107587;28;20475;-61
2021/07/18 09:29:42;;;;;;;7.40;3.50;;;;;;;;;;5110352;28;20518;-61
2021/07/18 09:32:13;;;;;;;8.13;3.70;;;;;;;;;;5103422;28;20604;-60
2021/07/18 09:34:43;;;;;;;8.20;6.20;;;;;;;;;;5112189;28;20458;-60
2021/07/18 09:37:20;;;;;;;8.10;5.07;;;;;;;;;;5110845;28;20470;-61
2021/07/18 09:40:15;;;;;;;7.40;3.80;;;;;;;;;;5096934;28;20526;-61
2021/07/18 09:42:43;;;;;;;8.43;4.27;;;;;;;;;;5114641;28;20509;-61
2021/07/18 09:45:16;;;;;;;12.27;3.80;;;;;;;;;;5100404;28;20972;-60
2021/07/18 09:48:00;;;;;;;6.10;3.60;;;;;;;;;;5094390;28;20544;-61
2021/07/18 09:50:29;;;;;;;6.10;3.53;;;;;;;;;;5099766;28;20487;-61
2021/07/18 09:53:11;;;;;;;7.53;4.37;;;;;;;;;;5104472;28;20456;-62
2021/07/18 09:55:59;;;;;;;9.40;3.00;;;;;;;;;;5103278;28;20436;-61
2021/07/18 09:58:26;;;;;;;9.47;4.10;;;;;;;;;;5104262;28;20443;-59
2021/07/18 10:00:54;;;;;;;8.87;4.60;;;;;;;;;;5113252;28;20560;-61
2021/07/18 10:03:23;;;;;;;5.80;4.13;;;;;;;;;;5108015;28;20538;-61
2021/07/18 10:06:05;;;;;;;8.27;4.97;;;;;;;;;;5114016;28;20458;-60
2021/07/18 10:08:37;;;;;;;5.43;3.90;;;;;;;;;;5096671;28;20502;-64
2021/07/18 10:11:05;;;;;;;9.93;6.83;;;;;;;;;;5103089;28;20515;-61
2021/07/18 10:13:34;;;;;;;6.53;4.07;;;;;;;;;;5101231;28;20456;-61
2021/07/18 10:16:09;;;;;;;6.80;4.40;;;;;;;;;;5098183;28;20455;-61
2021/07/18 10:18:37;;;;;;;6.43;4.67;;;;;;;;;;5104060;28;20465;-61
2021/07/18 10:21:05;;;;;;;9.30;5.40;;;;;;;;;;5106198;28;21182;-59
2021/07/18 10:23:35;;;;;;;12.03;4.70;;;;;;;;;;5105974;28;20458;-60
2021/07/18 10:26:02;;;;;;;9.07;4.80;;;;;;;;;;5100403;28;20463;-61
2021/07/18 10:28:32;;;;;;;9.43;5.60;;;;;;;;;;5103948;28;20605;-61
2021/07/18 10:31:13;;;;;;;6.83;4.87;;;;;;;;;;5098705;28;20483;-60
2021/07/18 10:33:48;;;;;;;8.40;5.07;;;;;;;;;;5090706;28;20453;-60
2021/07/18 10:36:20;;;;;;;8.57;4.23;;;;;;;;;;5095126;28;20456;-61
2021/07/18 10:38:49;;;;;;;6.30;4.60;;;;;;;;;;5100673;28;20456;-64
2021/07/18 10:41:26;;;;;;;8.80;5.37;;;;;;;;;;5094407;28;20460;-61
2021/07/18 10:44:12;;;;;;;9.10;5.00;;;;;;;;;;5092424;28;20470;-61
2021/07/18 10:46:53;;;;;;;7.40;4.40;;;;;;;;;;5096687;28;20540;-60
2021/07/18 10:49:38;;;;;;;6.77;4.40;;;;;;;;;;5113429;28;20458;-59
2021/07/18 10:52:12;;;;;;;6.07;4.20;;;;;;;;;;5099894;28;20471;-60
2021/07/18 10:54:48;;;;;;;5.33;4.23;;;;;;;;;;5103495;28;20463;-62
2021/07/18 10:57:26;;;;;;;6.00;3.77;;;;;;;;;;5091814;28;20482;-60
2021/07/18 11:00:23;;;;;;;4.87;3.50;;;;;;;;;;5098512;28;20451;-61
2021/07/18 11:03:06;;;;;;;7.27;3.40;;;;;;;;;;5112190;28;20463;-60
2021/07/18 11:05:41;;;;;;;6.97;3.30;;;;;;;;;;5105577;28;20474;-60
2021/07/18 11:08:08;;;;;;;6.43;3.23;;;;;;;;;;5096367;28;20451;-60
2021/07/18 11:10:49;;;;;;;6.30;3.50;;;;;;;;;;5096565;28;20482;-60
2021/07/18 11:13:22;;;;;;;4.23;2.27;;;;;;;;;;5110265;28;20518;-61
2021/07/18 11:15:55;;;;;;;6.03;3.90;;;;;;;;;;5104382;28;20478;-60
2021/07/18 11:18:37;;;;;;;3.70;2.50;;;;;;;;;;5090649;28;20443;-60
2021/07/18 11:21:06;;;;;;;6.07;3.10;;;;;;;;;;5090139;28;20515;-61
2021/07/18 11:23:39;;;;;;;13.70;8.80;;;;;;;;;;5088268;28;20491;-60
2021/07/18 11:26:15;;;;;;;5.20;3.47;;;;;;;;;;5090306;28;20431;-60
2021/07/18 11:28:49;;;;;;;4.10;2.80;;;;;;;;;;5095878;28;20669;-61
2021/07/18 11:31:20;;;;;;;6.90;2.80;;;;;;;;;;5104242;28;20541;-59
2021/07/18 11:33:52;;;;;;;7.70;3.40;;;;;;;;;;5102905;28;20447;-59
2021/07/18 11:36:21;;;;;;;4.47;2.70;;;;;;;;;;5109728;28;20463;-61
2021/07/18 11:38:49;;;;;;;7.97;3.47;;;;;;;;;;5095487;28;20467;-60
2021/07/18 11:41:40;;;;;;;10.20;3.43;;;;;;;;;;5088426;28;20507;-60
2021/07/18 11:44:10;;;;;;;4.10;2.80;;;;;;;;;;5088524;28;20432;-58
2021/07/18 11:46:42;;;;;;;4.40;2.73;;;;;;;;;;5093124;28;20459;-58
2021/07/18 11:49:19;;;;;;;6.07;3.47;;;;;;;;;;5110689;28;20486;-59
2021/07/18 11:51:47;;;;;;;7.10;4.20;;;;;;;;;;5110809;28;20498;-60
2021/07/18 11:54:23;;;;;;;5.53;3.10;;;;;;;;;;5105526;28;20441;-59
2021/07/18 11:57:06;;;;;;;8.40;6.13;;;;;;;;;;5090036;28;20448;-61
2021/07/18 11:59:34;;;;;;;8.73;5.10;;;;;;;;;;5099653;28;20475;-59
2021/07/18 12:02:01;;;;;;;6.70;4.50;;;;;;;;;;5104909;28;20484;-60
2021/07/18 12:04:48;;;;;;;5.30;3.07;;;;;;;;;;5109617;28;20463;-56
2021/07/18 12:07:19;;;;;;;3.40;2.30;;;;;;;;;;5110695;28;20459;-60
2021/07/18 12:09:47;;;;;;;8.90;2.90;;;;;;;;;;5108637;28;20470;-60
2021/07/18 12:12:20;;;;;;;6.60;3.93;;;;;;;;;;5101054;28;20476;-59
2021/07/18 12:14:48;;;;;;;4.77;2.77;;;;;;;;;;5106571;28;20474;-60
2021/07/18 12:17:16;;;;;;;5.70;3.40;;;;;;;;;;5111678;28;20526;-59
2021/07/18 12:19:49;;;;;;;10.10;4.00;;;;;;;;;;5115155;28;20463;-60
2021/07/18 12:22:19;;;;;;;5.80;3.37;;;;;;;;;;5111057;28;20464;-59
2021/07/18 12:24:50;;;;;;;9.03;5.70;;;;;;;;;;5099096;28;20475;-60
2021/07/18 12:27:19;;;;;;;4.93;3.20;;;;;;;;;;5113792;28;20484;-60
2021/07/18 12:29:50;;;;;;;9.03;3.67;;;;;;;;;;5112460;28;20488;-60
2021/07/18 12:32:31;;;;;;;3.87;2.40;;;;;;;;;;5097374;28;20498;-60
2021/07/18 12:34:59;;;;;;;8.10;4.30;;;;;;;;;;5096057;28;20549;-60
2021/07/18 12:37:30;;;;;;;6.50;3.67;;;;;;;;;;5096005;28;20559;-60
2021/07/18 12:39:59;;;;;;;6.40;3.87;;;;;;;;;;5104828;28;20796;-58
2021/07/18 12:42:32;;;;;;;5.07;2.80;;;;;;;;;;5106589;28;20463;-60
2021/07/18 12:48:04;;;;;;;5.50;3.00;;;;;;;;;;5105478;28;20421;-60
2021/07/18 12:50:32;;;;;;;5.07;2.70;;;;;;;;;;5109277;28;20517;-60
2021/07/18 12:53:08;;;;;;;5.83;2.93;;;;;;;;;;5104452;28;20531;-61
2021/07/18 12:55:38;;;;;;;5.00;2.90;;;;;;;;;;5098708;28;20470;-61
2021/07/18 12:58:21;;;;;;;4.53;2.60;;;;;;;;;;5103618;28;20527;-61
2021/07/18 13:00:50;;;;;;;4.83;2.97;;;;;;;;;;5112979;28;20471;-62
2021/07/18 13:03:19;;;;;;;6.50;2.70;;;;;;;;;;5108725;28;20455;-61
2021/07/18 13:05:48;;;;;;;5.20;2.70;;;;;;;;;;5094590;28;20512;-61
2021/07/18 13:08:36;;;;;;;6.10;3.40;;;;;;;;;;5109032;28;20475;-61
2021/07/18 13:11:24;;;;;;;6.90;3.20;;;;;;;;;;5093066;28;20494;-60
2021/07/18 13:13:53;;;;;;;5.43;2.83;;;;;;;;;;5098818;28;20458;-62
2021/07/18 13:16:31;;;;;;;9.30;4.80;;;;;;;;;;5111455;28;20456;-62
2021/07/18 13:19:16;;;;;;;10.80;4.13;;;;;;;;;;5104606;28;20460;-62
2021/07/18 13:21:45;;;;;;;6.20;3.30;;;;;;;;;;5103543;28;20565;-60
2021/07/18 13:24:12;;;;;;;4.70;2.70;;;;;;;;;;5098083;28;20819;-61
2021/07/18 13:26:46;;;;;;;6.83;2.97;;;;;;;;;;5111246;28;20455;-61
2021/07/18 13:29:38;;;;;;;6.40;2.73;;;;;;;;;;5109060;28;20483;-61
2021/07/18 13:32:15;;;;;;;6.73;2.67;;;;;;;;;;5092049;28;20484;-60
2021/07/18 13:35:14;;;;;;;6.17;2.60;;;;;;;;;;5106937;28;20494;-61
2021/07/18 13:37:49;;;;;;;7.27;2.87;;;;;;;;;;5101822;28;20462;-62
2021/07/18 13:40:25;;;;;;;7.60;2.70;;;;;;;;;;5112549;28;20699;-61
2021/07/18 13:43:05;;;;;;;7.57;3.20;;;;;;;;;;5103037;28;20470;-61
2021/07/18 13:45:54;;;;;;;5.30;2.83;;;;;;;;;;5095702;28;20444;-62
2021/07/18 13:48:24;;;;;;;5.00;2.80;;;;;;;;;;5096043;28;20424;-61
2021/07/18 13:50:55;;;;;;;6.73;3.30;;;;;;;;;;5100173;28;20989;-61
2021/07/18 13:53:52;;;;;;;8.87;3.10;;;;;;;;;;5105846;28;20464;-64
2021/07/18 13:56:19;;;;;;;4.63;3.07;;;;;;;;;;5093960;28;20460;-61
2021/07/18 14:01:51;;;;;;;4.97;3.13;;;;;;;;;;5110885;28;20483;-61
2021/07/18 14:04:20;;;;;;;4.90;3.20;;;;;;;;;;5092454;28;20444;-61
2021/07/18 14:06:47;;;;;;;6.13;3.57;;;;;;;;;;5097131;28;20494;-61
2021/07/18 14:09:16;;;;;;;4.80;3.03;;;;;;;;;;5113549;28;20515;-61
2021/07/18 14:11:51;;;;;;;4.07;2.60;;;;;;;;;;5105596;28;20507;-60
2021/07/18 14:14:18;;;;;;;6.20;4.10;;;;;;;;;;5094771;28;20456;-60
2021/07/18 14:16:46;;;;;;;6.23;3.70;;;;;;;;;;5107721;28;20471;-61
2021/07/18 14:19:13;;;;;;;5.40;4.10;;;;;;;;;;5115247;28;20458;-60
2021/07/18 14:21:45;;;;;;;4.90;3.67;;;;;;;;;;5115060;28;20463;-60
2021/07/18 14:24:12;;;;;;;5.10;3.97;;;;;;;;;;5113397;28;20507;-60
2021/07/18 14:26:42;;;;;;;4.50;3.40;;;;;;;;;;5113113;28;20455;-59
2021/07/18 14:29:14;;;;;;;7.00;4.20;;;;;;;;;;5113488;28;20497;-60
2021/07/18 14:31:42;;;;;;;5.57;3.40;;;;;;;;;;5102342;28;20520;-62
2021/07/18 14:34:23;;;;;;;4.53;3.40;;;;;;;;;;5109691;28;20500;-62
2021/07/18 14:36:56;;;;;;;5.37;2.90;;;;;;;;;;5112645;28;20455;-60
2021/07/18 14:39:23;;;;;;;5.10;3.20;;;;;;;;;;5114906;28;20477;-60
2021/07/18 14:41:53;;;;;;;4.77;3.53;;;;;;;;;;5102852;28;20965;-59
2021/07/18 14:44:21;;;;;;;7.10;4.37;;;;;;;;;;5112618;28;20477;-60
2021/07/18 14:47:03;;;;;;;8.00;4.67;;;;;;;;;;5114590;28;20469;-60
2021/07/18 14:49:39;;;;;;;6.93;5.47;;;;;;;;;;5097119;28;20459;-60
2021/07/18 14:52:09;;;;;;;6.30;4.87;;;;;;;;;;5106558;28;20522;-60
2021/07/18 14:54:54;;;;;;;6.53;4.70;;;;;;;;;;5103408;28;20451;-60
2021/07/18 15:00:21;;;;;;;9.57;4.17;;;;;;;;;;5106122;28;20462;-61
2021/07/18 15:02:48;;;;;;;4.97;3.67;;;;;;;;;;5106239;28;20440;-61
2021/07/18 15:05:18;;;;;;;11.30;3.70;;;;;;;;;;5096189;28;20491;-61
2021/07/18 15:07:47;;;;;;;7.40;4.80;;;;;;;;;;5111601;28;20455;-60
2021/07/18 15:10:16;;;;;;;6.07;3.90;;;;;;;;;;5107151;28;20511;-60
2021/07/18 15:12:44;;;;;;;6.97;3.87;;;;;;;;;;5108682;28;20495;-60
2021/07/18 15:15:13;;;;;;;8.50;4.00;;;;;;;;;;5114677;28;20474;-60
2021/07/18 15:17:45;;;;;;;7.80;5.07;;;;;;;;;;5134872;28;20451;-59
2021/07/18 15:20:21;;;;;;;9.30;5.00;;;;;;;;;;5111559;28;20465;-60
2021/07/18 15:22:56;;;;;;;8.33;5.40;;;;;;;;;;5114751;28;20430;-58